sensor_id;sensor_type;location;lat;lon;timestamp;P1;durP1;ratioP1;P2;durP2;ratioP2
43124;SDS011;49182;50.788;7.318;2022-07-05T00:02:19;4.72;;;1.60;;
43124;SDS011;49182;50.788;7.318;2022-07-05T00:04:47;5.65;;;1.70;;
43124;SDS011;49182;50.788;7.318;2022-07-05T00:07:14;3.85;;;1.80;;
43124;SDS011;49182;50.788;7.318;2022-07-05T00:09:41;4.88;;;1.90;;
43124;SDS011;49182;50.788;7.318;2022-07-05T00:12:07;4.55;;;1.70;;
43124;SDS011;49182;50.788;7.318;2022-07-05T00:14:35;3.65;;;1.58;;
43124;SDS011;49182;50.788;7.318;2022-07-05T00:17:02;3.97;;;1.92;;
43124;SDS011;49182;50.788;7.318;2022-07-05T00:19:29;3.50;;;1.85;;
43124;SDS011;49182;50.788;7.318;2022-07-05T00:21:57;4.47;;;1.95;;
43124;SDS011;49182;50.788;7.318;2022-07-05T00:24:24;6.05;;;2.13;;
43124;SDS011;49182;50.788;7.318;2022-07-05T00:26:51;3.88;;;1.70;;
43124;SDS011;49182;50.788;7.318;2022-07-05T00:29:17;4.95;;;2.03;;
43124;SDS011;49182;50.788;7.318;2022-07-05T00:31:44;3.72;;;1.80;;
43124;SDS011;49182;50.788;7.318;2022-07-05T00:34:11;4.60;;;1.70;;
43124;SDS011;49182;50.788;7.318;2022-07-05T00:36:38;4.13;;;1.60;;
43124;SDS011;49182;50.788;7.318;2022-07-05T00:39:06;4.75;;;1.70;;
43124;SDS011;49182;50.788;7.318;2022-07-05T00:41:34;2.92;;;1.50;;
43124;SDS011;49182;50.788;7.318;2022-07-05T00:44:01;3.03;;;1.70;;
43124;SDS011;49182;50.788;7.318;2022-07-05T00:46:29;6.10;;;1.67;;
43124;SDS011;49182;50.788;7.318;2022-07-05T00:48:56;3.15;;;1.63;;
43124;SDS011;49182;50.788;7.318;2022-07-05T00:51:24;5.20;;;1.80;;
43124;SDS011;49182;50.788;7.318;2022-07-05T00:53:53;4.22;;;1.88;;
43124;SDS011;49182;50.788;7.318;2022-07-05T00:56:21;4.30;;;1.75;;
43124;SDS011;49182;50.788;7.318;2022-07-05T00:58:49;4.82;;;1.85;;
43124;SDS011;49182;50.788;7.318;2022-07-05T01:01:16;4.72;;;1.90;;
43124;SDS011;49182;50.788;7.318;2022-07-05T01:03:44;5.25;;;1.60;;
43124;SDS011;49182;50.788;7.318;2022-07-05T01:06:12;3.33;;;1.70;;
43124;SDS011;49182;50.788;7.318;2022-07-05T01:08:40;4.13;;;1.73;;
43124;SDS011;49182;50.788;7.318;2022-07-05T01:11:09;4.68;;;1.52;;
43124;SDS011;49182;50.788;7.318;2022-07-05T01:13:37;4.40;;;1.80;;
43124;SDS011;49182;50.788;7.318;2022-07-05T01:16:04;4.35;;;1.90;;
43124;SDS011;49182;50.788;7.318;2022-07-05T01:18:31;4.75;;;2.00;;
43124;SDS011;49182;50.788;7.318;2022-07-05T01:20:58;4.97;;;1.88;;
43124;SDS011;49182;50.788;7.318;2022-07-05T01:23:27;6.68;;;1.90;;
43124;SDS011;49182;50.788;7.318;2022-07-05T01:25:55;6.50;;;1.95;;
43124;SDS011;49182;50.788;7.318;2022-07-05T01:28:23;5.38;;;1.90;;
43124;SDS011;49182;50.788;7.318;2022-07-05T01:30:50;5.50;;;2.00;;
43124;SDS011;49182;50.788;7.318;2022-07-05T01:33:18;6.40;;;1.90;;
43124;SDS011;49182;50.788;7.318;2022-07-05T01:35:44;4.72;;;2.03;;
43124;SDS011;49182;50.788;7.318;2022-07-05T01:38:11;4.70;;;1.77;;
43124;SDS011;49182;50.788;7.318;2022-07-05T01:40:39;4.10;;;1.80;;
43124;SDS011;49182;50.788;7.318;2022-07-05T01:43:06;4.43;;;1.90;;
43124;SDS011;49182;50.788;7.318;2022-07-05T01:45:33;3.25;;;1.65;;
43124;SDS011;49182;50.788;7.318;2022-07-05T01:48:00;4.05;;;1.73;;
43124;SDS011;49182;50.788;7.318;2022-07-05T01:50:28;3.30;;;1.58;;
43124;SDS011;49182;50.788;7.318;2022-07-05T01:52:55;5.35;;;2.00;;
43124;SDS011;49182;50.788;7.318;2022-07-05T01:55:27;3.13;;;1.60;;
43124;SDS011;49182;50.788;7.318;2022-07-05T01:57:55;5.00;;;1.90;;
43124;SDS011;49182;50.788;7.318;2022-07-05T02:00:21;4.95;;;2.00;;
43124;SDS011;49182;50.788;7.318;2022-07-05T02:02:48;3.58;;;1.60;;
43124;SDS011;49182;50.788;7.318;2022-07-05T02:05:15;4.75;;;1.73;;
43124;SDS011;49182;50.788;7.318;2022-07-05T02:07:46;5.38;;;1.75;;
43124;SDS011;49182;50.788;7.318;2022-07-05T02:10:14;3.92;;;1.75;;
43124;SDS011;49182;50.788;7.318;2022-07-05T02:12:41;4.10;;;1.80;;
43124;SDS011;49182;50.788;7.318;2022-07-05T02:15:10;5.90;;;1.83;;
43124;SDS011;49182;50.788;7.318;2022-07-05T02:17:37;4.78;;;2.00;;
43124;SDS011;49182;50.788;7.318;2022-07-05T02:20:04;4.10;;;1.90;;
43124;SDS011;49182;50.788;7.318;2022-07-05T02:22:32;7.55;;;1.88;;
43124;SDS011;49182;50.788;7.318;2022-07-05T02:24:59;3.83;;;2.15;;
43124;SDS011;49182;50.788;7.318;2022-07-05T02:27:25;5.45;;;2.47;;
43124;SDS011;49182;50.788;7.318;2022-07-05T02:29:53;5.63;;;1.80;;
43124;SDS011;49182;50.788;7.318;2022-07-05T02:32:29;8.18;;;3.65;;
43124;SDS011;49182;50.788;7.318;2022-07-05T02:34:56;3.78;;;1.83;;
43124;SDS011;49182;50.788;7.318;2022-07-05T02:37:23;3.53;;;1.73;;
43124;SDS011;49182;50.788;7.318;2022-07-05T02:39:49;5.13;;;1.85;;
43124;SDS011;49182;50.788;7.318;2022-07-05T02:42:16;4.50;;;1.98;;
43124;SDS011;49182;50.788;7.318;2022-07-05T02:44:44;4.75;;;1.90;;
43124;SDS011;49182;50.788;7.318;2022-07-05T02:47:12;4.90;;;1.70;;
43124;SDS011;49182;50.788;7.318;2022-07-05T02:49:41;5.30;;;1.88;;
43124;SDS011;49182;50.788;7.318;2022-07-05T02:52:07;6.00;;;1.90;;
43124;SDS011;49182;50.788;7.318;2022-07-05T02:54:34;6.05;;;1.90;;
43124;SDS011;49182;50.788;7.318;2022-07-05T02:57:03;4.78;;;1.98;;
43124;SDS011;49182;50.788;7.318;2022-07-05T02:59:30;3.42;;;1.80;;
43124;SDS011;49182;50.788;7.318;2022-07-05T03:01:57;7.18;;;2.00;;
43124;SDS011;49182;50.788;7.318;2022-07-05T03:04:24;4.32;;;2.08;;
43124;SDS011;49182;50.788;7.318;2022-07-05T03:06:56;5.18;;;1.98;;
43124;SDS011;49182;50.788;7.318;2022-07-05T03:09:26;4.45;;;2.10;;
43124;SDS011;49182;50.788;7.318;2022-07-05T03:11:54;3.60;;;2.17;;
43124;SDS011;49182;50.788;7.318;2022-07-05T03:14:21;7.63;;;2.08;;
43124;SDS011;49182;50.788;7.318;2022-07-05T03:16:49;4.15;;;1.80;;
43124;SDS011;49182;50.788;7.318;2022-07-05T03:19:18;4.00;;;2.10;;
43124;SDS011;49182;50.788;7.318;2022-07-05T03:21:45;4.65;;;1.92;;
43124;SDS011;49182;50.788;7.318;2022-07-05T03:24:14;5.72;;;1.88;;
43124;SDS011;49182;50.788;7.318;2022-07-05T03:26:41;7.55;;;2.47;;
43124;SDS011;49182;50.788;7.318;2022-07-05T03:29:07;3.25;;;1.63;;
43124;SDS011;49182;50.788;7.318;2022-07-05T03:31:35;4.22;;;2.15;;
43124;SDS011;49182;50.788;7.318;2022-07-05T03:34:04;4.15;;;1.90;;
43124;SDS011;49182;50.788;7.318;2022-07-05T03:36:31;3.78;;;2.17;;
43124;SDS011;49182;50.788;7.318;2022-07-05T03:39:01;4.32;;;2.20;;
43124;SDS011;49182;50.788;7.318;2022-07-05T03:41:30;6.25;;;2.33;;
43124;SDS011;49182;50.788;7.318;2022-07-05T03:43:56;5.50;;;2.00;;
43124;SDS011;49182;50.788;7.318;2022-07-05T03:46:23;5.43;;;2.28;;
43124;SDS011;49182;50.788;7.318;2022-07-05T03:48:50;5.95;;;2.13;;
43124;SDS011;49182;50.788;7.318;2022-07-05T03:51:17;5.78;;;2.15;;
43124;SDS011;49182;50.788;7.318;2022-07-05T03:53:45;5.43;;;2.17;;
43124;SDS011;49182;50.788;7.318;2022-07-05T03:56:12;5.28;;;2.10;;
43124;SDS011;49182;50.788;7.318;2022-07-05T03:58:40;5.18;;;2.80;;
43124;SDS011;49182;50.788;7.318;2022-07-05T04:01:07;3.55;;;1.85;;
43124;SDS011;49182;50.788;7.318;2022-07-05T04:03:34;4.93;;;1.70;;
43124;SDS011;49182;50.788;7.318;2022-07-05T04:06:09;4.10;;;2.20;;
43124;SDS011;49182;50.788;7.318;2022-07-05T04:08:36;6.25;;;2.05;;
43124;SDS011;49182;50.788;7.318;2022-07-05T04:11:03;4.18;;;1.98;;
43124;SDS011;49182;50.788;7.318;2022-07-05T04:13:31;4.05;;;1.92;;
43124;SDS011;49182;50.788;7.318;2022-07-05T04:16:01;6.25;;;1.90;;
43124;SDS011;49182;50.788;7.318;2022-07-05T04:18:28;4.63;;;2.17;;
43124;SDS011;49182;50.788;7.318;2022-07-05T04:20:57;7.28;;;2.40;;
43124;SDS011;49182;50.788;7.318;2022-07-05T04:23:24;3.80;;;2.00;;
43124;SDS011;49182;50.788;7.318;2022-07-05T04:25:50;5.28;;;2.10;;
43124;SDS011;49182;50.788;7.318;2022-07-05T04:28:24;4.43;;;2.17;;
43124;SDS011;49182;50.788;7.318;2022-07-05T04:30:53;5.15;;;1.92;;
43124;SDS011;49182;50.788;7.318;2022-07-05T04:33:23;4.72;;;2.33;;
43124;SDS011;49182;50.788;7.318;2022-07-05T04:35:53;3.60;;;1.95;;
43124;SDS011;49182;50.788;7.318;2022-07-05T04:38:21;4.40;;;2.17;;
43124;SDS011;49182;50.788;7.318;2022-07-05T04:40:48;6.43;;;1.80;;
43124;SDS011;49182;50.788;7.318;2022-07-05T04:43:15;6.18;;;1.75;;
43124;SDS011;49182;50.788;7.318;2022-07-05T04:45:43;2.92;;;1.80;;
43124;SDS011;49182;50.788;7.318;2022-07-05T04:48:10;3.38;;;1.77;;
43124;SDS011;49182;50.788;7.318;2022-07-05T04:50:41;5.20;;;1.92;;
43124;SDS011;49182;50.788;7.318;2022-07-05T04:53:08;3.92;;;1.85;;
43124;SDS011;49182;50.788;7.318;2022-07-05T04:55:35;6.47;;;2.00;;
43124;SDS011;49182;50.788;7.318;2022-07-05T04:58:02;4.47;;;2.00;;
43124;SDS011;49182;50.788;7.318;2022-07-05T05:00:28;5.32;;;1.90;;
43124;SDS011;49182;50.788;7.318;2022-07-05T05:02:55;3.38;;;1.65;;
43124;SDS011;49182;50.788;7.318;2022-07-05T05:05:22;4.78;;;1.92;;
43124;SDS011;49182;50.788;7.318;2022-07-05T05:07:49;3.65;;;2.00;;
43124;SDS011;49182;50.788;7.318;2022-07-05T05:10:16;4.43;;;2.00;;
43124;SDS011;49182;50.788;7.318;2022-07-05T05:12:43;3.60;;;2.00;;
43124;SDS011;49182;50.788;7.318;2022-07-05T05:15:09;3.90;;;1.73;;
43124;SDS011;49182;50.788;7.318;2022-07-05T05:17:36;3.50;;;1.90;;
43124;SDS011;49182;50.788;7.318;2022-07-05T05:20:05;5.35;;;2.10;;
43124;SDS011;49182;50.788;7.318;2022-07-05T05:22:33;3.50;;;1.95;;
43124;SDS011;49182;50.788;7.318;2022-07-05T05:25:01;4.93;;;2.10;;
43124;SDS011;49182;50.788;7.318;2022-07-05T05:27:28;4.60;;;1.92;;
43124;SDS011;49182;50.788;7.318;2022-07-05T05:29:55;3.45;;;1.80;;
43124;SDS011;49182;50.788;7.318;2022-07-05T05:32:22;5.35;;;2.13;;
43124;SDS011;49182;50.788;7.318;2022-07-05T05:34:48;3.90;;;2.00;;
43124;SDS011;49182;50.788;7.318;2022-07-05T05:37:15;3.83;;;2.03;;
43124;SDS011;49182;50.788;7.318;2022-07-05T05:39:41;4.40;;;1.98;;
43124;SDS011;49182;50.788;7.318;2022-07-05T05:42:10;5.15;;;2.45;;
43124;SDS011;49182;50.788;7.318;2022-07-05T05:44:36;4.20;;;2.05;;
43124;SDS011;49182;50.788;7.318;2022-07-05T05:47:03;6.32;;;2.03;;
43124;SDS011;49182;50.788;7.318;2022-07-05T05:49:30;5.47;;;2.20;;
43124;SDS011;49182;50.788;7.318;2022-07-05T05:51:57;7.18;;;2.00;;
43124;SDS011;49182;50.788;7.318;2022-07-05T05:54:23;4.30;;;2.10;;
43124;SDS011;49182;50.788;7.318;2022-07-05T05:56:50;3.88;;;2.05;;
43124;SDS011;49182;50.788;7.318;2022-07-05T05:59:18;4.10;;;2.13;;
43124;SDS011;49182;50.788;7.318;2022-07-05T06:01:45;4.72;;;2.17;;
43124;SDS011;49182;50.788;7.318;2022-07-05T06:04:12;3.97;;;2.25;;
43124;SDS011;49182;50.788;7.318;2022-07-05T06:06:40;3.80;;;2.05;;
43124;SDS011;49182;50.788;7.318;2022-07-05T06:09:06;4.85;;;2.05;;
43124;SDS011;49182;50.788;7.318;2022-07-05T06:11:33;5.07;;;2.28;;
43124;SDS011;49182;50.788;7.318;2022-07-05T06:13:59;3.83;;;2.05;;
43124;SDS011;49182;50.788;7.318;2022-07-05T06:16:27;4.75;;;2.13;;
43124;SDS011;49182;50.788;7.318;2022-07-05T06:18:54;5.35;;;2.40;;
43124;SDS011;49182;50.788;7.318;2022-07-05T06:21:21;8.13;;;2.78;;
43124;SDS011;49182;50.788;7.318;2022-07-05T06:23:47;5.90;;;2.60;;
43124;SDS011;49182;50.788;7.318;2022-07-05T06:26:14;5.07;;;2.30;;
43124;SDS011;49182;50.788;7.318;2022-07-05T06:28:40;6.82;;;2.22;;
43124;SDS011;49182;50.788;7.318;2022-07-05T06:31:07;5.55;;;2.58;;
43124;SDS011;49182;50.788;7.318;2022-07-05T06:33:35;6.00;;;2.38;;
43124;SDS011;49182;50.788;7.318;2022-07-05T06:36:02;5.18;;;2.70;;
43124;SDS011;49182;50.788;7.318;2022-07-05T06:38:28;10.05;;;2.50;;
43124;SDS011;49182;50.788;7.318;2022-07-05T06:40:55;8.15;;;3.13;;
43124;SDS011;49182;50.788;7.318;2022-07-05T06:43:22;7.93;;;2.97;;
43124;SDS011;49182;50.788;7.318;2022-07-05T06:45:59;5.55;;;2.78;;
43124;SDS011;49182;50.788;7.318;2022-07-05T06:48:26;9.10;;;3.05;;
43124;SDS011;49182;50.788;7.318;2022-07-05T06:50:54;6.00;;;2.72;;
43124;SDS011;49182;50.788;7.318;2022-07-05T06:53:21;5.85;;;3.05;;
43124;SDS011;49182;50.788;7.318;2022-07-05T06:55:47;9.07;;;3.20;;
43124;SDS011;49182;50.788;7.318;2022-07-05T06:58:22;5.10;;;2.97;;
43124;SDS011;49182;50.788;7.318;2022-07-05T07:00:49;8.50;;;3.20;;
43124;SDS011;49182;50.788;7.318;2022-07-05T07:03:35;6.38;;;2.72;;
43124;SDS011;49182;50.788;7.318;2022-07-05T07:06:23;10.07;;;3.33;;
43124;SDS011;49182;50.788;7.318;2022-07-05T07:08:50;5.38;;;2.58;;
43124;SDS011;49182;50.788;7.318;2022-07-05T07:11:17;5.78;;;2.90;;
43124;SDS011;49182;50.788;7.318;2022-07-05T07:13:43;5.72;;;2.78;;
43124;SDS011;49182;50.788;7.318;2022-07-05T07:16:10;5.07;;;2.70;;
43124;SDS011;49182;50.788;7.318;2022-07-05T07:18:37;6.53;;;2.78;;
43124;SDS011;49182;50.788;7.318;2022-07-05T07:21:25;5.78;;;2.50;;
43124;SDS011;49182;50.788;7.318;2022-07-05T07:23:51;7.03;;;2.70;;
43124;SDS011;49182;50.788;7.318;2022-07-05T07:26:18;4.75;;;2.60;;
43124;SDS011;49182;50.788;7.318;2022-07-05T07:28:44;6.78;;;2.30;;
43124;SDS011;49182;50.788;7.318;2022-07-05T07:31:11;6.45;;;3.25;;
43124;SDS011;49182;50.788;7.318;2022-07-05T07:33:38;7.57;;;2.65;;
43124;SDS011;49182;50.788;7.318;2022-07-05T07:36:10;5.25;;;2.45;;
43124;SDS011;49182;50.788;7.318;2022-07-05T07:38:42;4.07;;;2.30;;
43124;SDS011;49182;50.788;7.318;2022-07-05T07:41:08;8.35;;;2.53;;
43124;SDS011;49182;50.788;7.318;2022-07-05T07:43:35;10.07;;;2.53;;
43124;SDS011;49182;50.788;7.318;2022-07-05T07:46:02;5.60;;;2.22;;
43124;SDS011;49182;50.788;7.318;2022-07-05T07:48:28;5.50;;;2.30;;
43124;SDS011;49182;50.788;7.318;2022-07-05T07:50:55;6.55;;;2.60;;
43124;SDS011;49182;50.788;7.318;2022-07-05T07:53:22;5.13;;;2.30;;
43124;SDS011;49182;50.788;7.318;2022-07-05T07:55:51;7.03;;;2.80;;
43124;SDS011;49182;50.788;7.318;2022-07-05T07:58:17;5.47;;;2.10;;
43124;SDS011;49182;50.788;7.318;2022-07-05T08:00:44;5.43;;;2.17;;
43124;SDS011;49182;50.788;7.318;2022-07-05T08:03:11;4.32;;;2.05;;
43124;SDS011;49182;50.788;7.318;2022-07-05T08:05:38;4.93;;;2.10;;
43124;SDS011;49182;50.788;7.318;2022-07-05T08:08:05;7.40;;;2.30;;
43124;SDS011;49182;50.788;7.318;2022-07-05T08:10:31;5.97;;;2.10;;
43124;SDS011;49182;50.788;7.318;2022-07-05T08:12:59;6.40;;;2.20;;
43124;SDS011;49182;50.788;7.318;2022-07-05T08:15:26;6.15;;;2.08;;
43124;SDS011;49182;50.788;7.318;2022-07-05T08:17:53;4.18;;;2.08;;
43124;SDS011;49182;50.788;7.318;2022-07-05T08:20:19;5.00;;;2.40;;
43124;SDS011;49182;50.788;7.318;2022-07-05T08:22:46;4.93;;;2.10;;
43124;SDS011;49182;50.788;7.318;2022-07-05T08:25:12;6.68;;;2.13;;
43124;SDS011;49182;50.788;7.318;2022-07-05T08:27:39;5.25;;;2.10;;
43124;SDS011;49182;50.788;7.318;2022-07-05T08:30:08;6.28;;;2.00;;
43124;SDS011;49182;50.788;7.318;2022-07-05T08:32:36;7.07;;;2.63;;
43124;SDS011;49182;50.788;7.318;2022-07-05T08:35:03;7.15;;;2.70;;
43124;SDS011;49182;50.788;7.318;2022-07-05T08:37:30;7.85;;;2.05;;
43124;SDS011;49182;50.788;7.318;2022-07-05T08:39:57;6.50;;;3.00;;
43124;SDS011;49182;50.788;7.318;2022-07-05T08:42:24;6.15;;;2.13;;
43124;SDS011;49182;50.788;7.318;2022-07-05T08:44:50;6.18;;;2.30;;
43124;SDS011;49182;50.788;7.318;2022-07-05T08:47:18;5.18;;;2.00;;
43124;SDS011;49182;50.788;7.318;2022-07-05T08:49:45;3.97;;;2.10;;
43124;SDS011;49182;50.788;7.318;2022-07-05T08:52:15;3.45;;;1.83;;
43124;SDS011;49182;50.788;7.318;2022-07-05T08:54:43;6.43;;;2.13;;
43124;SDS011;49182;50.788;7.318;2022-07-05T08:57:13;5.35;;;2.13;;
43124;SDS011;49182;50.788;7.318;2022-07-05T08:59:40;4.70;;;2.00;;
43124;SDS011;49182;50.788;7.318;2022-07-05T09:02:08;4.30;;;1.90;;
43124;SDS011;49182;50.788;7.318;2022-07-05T09:04:42;6.05;;;2.20;;
43124;SDS011;49182;50.788;7.318;2022-07-05T09:07:13;6.13;;;1.65;;
43124;SDS011;49182;50.788;7.318;2022-07-05T09:09:41;4.50;;;1.70;;
43124;SDS011;49182;50.788;7.318;2022-07-05T09:12:08;5.00;;;1.75;;
43124;SDS011;49182;50.788;7.318;2022-07-05T09:14:48;3.53;;;1.63;;
43124;SDS011;49182;50.788;7.318;2022-07-05T09:17:15;5.38;;;1.70;;
43124;SDS011;49182;50.788;7.318;2022-07-05T09:19:43;4.05;;;1.58;;
43124;SDS011;49182;50.788;7.318;2022-07-05T09:22:16;5.00;;;1.92;;
43124;SDS011;49182;50.788;7.318;2022-07-05T09:24:43;5.47;;;1.70;;
43124;SDS011;49182;50.788;7.318;2022-07-05T09:27:11;3.88;;;1.88;;
43124;SDS011;49182;50.788;7.318;2022-07-05T09:29:38;5.15;;;2.00;;
43124;SDS011;49182;50.788;7.318;2022-07-05T09:32:10;4.55;;;1.45;;
43124;SDS011;49182;50.788;7.318;2022-07-05T09:34:50;4.90;;;1.52;;
43124;SDS011;49182;50.788;7.318;2022-07-05T09:37:17;3.75;;;2.00;;
43124;SDS011;49182;50.788;7.318;2022-07-05T09:39:43;5.25;;;1.90;;
43124;SDS011;49182;50.788;7.318;2022-07-05T09:42:12;5.82;;;2.00;;
43124;SDS011;49182;50.788;7.318;2022-07-05T09:44:42;4.18;;;1.95;;
43124;SDS011;49182;50.788;7.318;2022-07-05T09:47:10;3.97;;;1.50;;
43124;SDS011;49182;50.788;7.318;2022-07-05T09:49:41;7.70;;;1.90;;
43124;SDS011;49182;50.788;7.318;2022-07-05T09:52:30;3.45;;;1.90;;
43124;SDS011;49182;50.788;7.318;2022-07-05T09:55:02;4.47;;;1.85;;
43124;SDS011;49182;50.788;7.318;2022-07-05T09:57:30;6.30;;;1.63;;
43124;SDS011;49182;50.788;7.318;2022-07-05T09:59:58;4.95;;;1.40;;
43124;SDS011;49182;50.788;7.318;2022-07-05T10:02:33;6.60;;;1.92;;
43124;SDS011;49182;50.788;7.318;2022-07-05T10:05:08;3.78;;;1.27;;
43124;SDS011;49182;50.788;7.318;2022-07-05T10:07:37;3.90;;;1.70;;
43124;SDS011;49182;50.788;7.318;2022-07-05T10:10:06;5.22;;;1.70;;
43124;SDS011;49182;50.788;7.318;2022-07-05T10:12:33;4.97;;;1.67;;
43124;SDS011;49182;50.788;7.318;2022-07-05T10:15:03;3.95;;;1.63;;
43124;SDS011;49182;50.788;7.318;2022-07-05T10:17:30;5.35;;;1.80;;
43124;SDS011;49182;50.788;7.318;2022-07-05T10:20:03;6.78;;;1.83;;
43124;SDS011;49182;50.788;7.318;2022-07-05T10:22:37;6.25;;;1.75;;
43124;SDS011;49182;50.788;7.318;2022-07-05T10:25:05;4.43;;;1.48;;
43124;SDS011;49182;50.788;7.318;2022-07-05T10:27:33;5.28;;;1.42;;
43124;SDS011;49182;50.788;7.318;2022-07-05T10:30:00;5.55;;;1.58;;
43124;SDS011;49182;50.788;7.318;2022-07-05T10:32:28;4.70;;;1.60;;
43124;SDS011;49182;50.788;7.318;2022-07-05T10:34:55;4.50;;;1.55;;
43124;SDS011;49182;50.788;7.318;2022-07-05T10:37:25;4.32;;;1.40;;
43124;SDS011;49182;50.788;7.318;2022-07-05T10:39:54;4.22;;;1.25;;
43124;SDS011;49182;50.788;7.318;2022-07-05T10:42:22;4.10;;;1.63;;
43124;SDS011;49182;50.788;7.318;2022-07-05T10:44:51;3.15;;;1.15;;
43124;SDS011;49182;50.788;7.318;2022-07-05T10:47:17;3.63;;;1.40;;
43124;SDS011;49182;50.788;7.318;2022-07-05T10:49:47;5.20;;;1.50;;
43124;SDS011;49182;50.788;7.318;2022-07-05T10:52:26;3.45;;;1.30;;
43124;SDS011;49182;50.788;7.318;2022-07-05T10:57:45;4.50;;;1.48;;
43124;SDS011;49182;50.788;7.318;2022-07-05T11:00:45;3.65;;;1.55;;
43124;SDS011;49182;50.788;7.318;2022-07-05T11:03:31;3.47;;;1.23;;
43124;SDS011;49182;50.788;7.318;2022-07-05T11:05:59;5.18;;;1.20;;
43124;SDS011;49182;50.788;7.318;2022-07-05T11:08:26;3.72;;;1.40;;
43124;SDS011;49182;50.788;7.318;2022-07-05T11:11:09;8.68;;;2.78;;
43124;SDS011;49182;50.788;7.318;2022-07-05T11:13:36;4.28;;;1.40;;
43124;SDS011;49182;50.788;7.318;2022-07-05T11:18:49;4.82;;;1.27;;
43124;SDS011;49182;50.788;7.318;2022-07-05T11:21:16;7.22;;;1.23;;
43124;SDS011;49182;50.788;7.318;2022-07-05T11:23:44;3.67;;;1.40;;
43124;SDS011;49182;50.788;7.318;2022-07-05T11:26:12;4.50;;;1.20;;
43124;SDS011;49182;50.788;7.318;2022-07-05T11:28:42;3.70;;;1.65;;
43124;SDS011;49182;50.788;7.318;2022-07-05T11:31:10;2.83;;;1.13;;
43124;SDS011;49182;50.788;7.318;2022-07-05T11:33:40;4.80;;;1.70;;
43124;SDS011;49182;50.788;7.318;2022-07-05T11:36:21;5.95;;;1.85;;
43124;SDS011;49182;50.788;7.318;2022-07-05T11:41:47;3.92;;;1.30;;
43124;SDS011;49182;50.788;7.318;2022-07-05T11:44:15;3.63;;;1.45;;
43124;SDS011;49182;50.788;7.318;2022-07-05T11:46:43;2.42;;;1.17;;
43124;SDS011;49182;50.788;7.318;2022-07-05T11:49:21;3.22;;;1.20;;
43124;SDS011;49182;50.788;7.318;2022-07-05T11:51:58;4.53;;;1.48;;
43124;SDS011;49182;50.788;7.318;2022-07-05T11:54:29;4.82;;;1.38;;
43124;SDS011;49182;50.788;7.318;2022-07-05T11:56:58;4.05;;;1.50;;
43124;SDS011;49182;50.788;7.318;2022-07-05T11:59:26;5.13;;;1.48;;
43124;SDS011;49182;50.788;7.318;2022-07-05T12:01:53;13.20;;;2.40;;
43124;SDS011;49182;50.788;7.318;2022-07-05T12:04:21;5.18;;;1.52;;
43124;SDS011;49182;50.788;7.318;2022-07-05T12:06:49;3.10;;;1.40;;
43124;SDS011;49182;50.788;7.318;2022-07-05T12:09:21;3.47;;;1.60;;
43124;SDS011;49182;50.788;7.318;2022-07-05T12:11:49;5.43;;;1.25;;
43124;SDS011;49182;50.788;7.318;2022-07-05T12:14:21;3.33;;;1.15;;
43124;SDS011;49182;50.788;7.318;2022-07-05T12:16:48;2.95;;;1.30;;
43124;SDS011;49182;50.788;7.318;2022-07-05T12:19:24;4.95;;;1.50;;
43124;SDS011;49182;50.788;7.318;2022-07-05T12:21:52;5.38;;;1.60;;
43124;SDS011;49182;50.788;7.318;2022-07-05T12:24:19;4.32;;;1.50;;
43124;SDS011;49182;50.788;7.318;2022-07-05T12:26:46;7.60;;;1.40;;
43124;SDS011;49182;50.788;7.318;2022-07-05T12:29:13;4.03;;;1.27;;
43124;SDS011;49182;50.788;7.318;2022-07-05T12:32:02;3.05;;;1.23;;
43124;SDS011;49182;50.788;7.318;2022-07-05T12:34:30;3.70;;;1.10;;
43124;SDS011;49182;50.788;7.318;2022-07-05T12:36:57;5.57;;;1.20;;
43124;SDS011;49182;50.788;7.318;2022-07-05T12:39:24;4.15;;;1.23;;
43124;SDS011;49182;50.788;7.318;2022-07-05T12:41:50;4.53;;;1.40;;
43124;SDS011;49182;50.788;7.318;2022-07-05T12:44:18;3.15;;;1.17;;
43124;SDS011;49182;50.788;7.318;2022-07-05T12:46:45;4.80;;;1.27;;
43124;SDS011;49182;50.788;7.318;2022-07-05T12:49:13;5.93;;;1.30;;
43124;SDS011;49182;50.788;7.318;2022-07-05T12:51:40;3.50;;;1.13;;
43124;SDS011;49182;50.788;7.318;2022-07-05T12:54:18;3.05;;;1.35;;
43124;SDS011;49182;50.788;7.318;2022-07-05T12:56:46;3.22;;;1.20;;
43124;SDS011;49182;50.788;7.318;2022-07-05T12:59:33;4.05;;;1.10;;
43124;SDS011;49182;50.788;7.318;2022-07-05T13:02:00;5.00;;;1.15;;
43124;SDS011;49182;50.788;7.318;2022-07-05T13:04:29;4.25;;;1.17;;
43124;SDS011;49182;50.788;7.318;2022-07-05T13:06:57;4.55;;;1.02;;
43124;SDS011;49182;50.788;7.318;2022-07-05T13:09:32;4.30;;;1.08;;
43124;SDS011;49182;50.788;7.318;2022-07-05T13:12:07;7.50;;;1.35;;
43124;SDS011;49182;50.788;7.318;2022-07-05T13:14:35;3.65;;;1.30;;
43124;SDS011;49182;50.788;7.318;2022-07-05T13:17:03;7.00;;;1.02;;
43124;SDS011;49182;50.788;7.318;2022-07-05T13:19:32;5.00;;;1.20;;
43124;SDS011;49182;50.788;7.318;2022-07-05T13:21:59;2.97;;;1.20;;
43124;SDS011;49182;50.788;7.318;2022-07-05T13:24:26;2.90;;;1.23;;
43124;SDS011;49182;50.788;7.318;2022-07-05T13:26:54;4.22;;;1.20;;
43124;SDS011;49182;50.788;7.318;2022-07-05T13:29:20;7.22;;;1.40;;
43124;SDS011;49182;50.788;7.318;2022-07-05T13:31:47;4.63;;;1.00;;
43124;SDS011;49182;50.788;7.318;2022-07-05T13:34:14;2.33;;;1.00;;
43124;SDS011;49182;50.788;7.318;2022-07-05T13:36:42;3.22;;;0.95;;
43124;SDS011;49182;50.788;7.318;2022-07-05T13:39:09;7.00;;;1.52;;
43124;SDS011;49182;50.788;7.318;2022-07-05T13:41:36;4.95;;;1.20;;
43124;SDS011;49182;50.788;7.318;2022-07-05T13:44:03;2.90;;;1.05;;
43124;SDS011;49182;50.788;7.318;2022-07-05T13:46:30;2.75;;;1.00;;
43124;SDS011;49182;50.788;7.318;2022-07-05T13:48:57;2.88;;;1.45;;
43124;SDS011;49182;50.788;7.318;2022-07-05T13:51:24;2.22;;;1.05;;
43124;SDS011;49182;50.788;7.318;2022-07-05T13:53:56;3.28;;;1.00;;
43124;SDS011;49182;50.788;7.318;2022-07-05T13:56:23;3.70;;;1.10;;
43124;SDS011;49182;50.788;7.318;2022-07-05T13:58:50;3.83;;;1.00;;
43124;SDS011;49182;50.788;7.318;2022-07-05T14:01:16;3.30;;;1.00;;
43124;SDS011;49182;50.788;7.318;2022-07-05T14:03:43;4.18;;;1.52;;
43124;SDS011;49182;50.788;7.318;2022-07-05T14:06:10;5.18;;;1.20;;
43124;SDS011;49182;50.788;7.318;2022-07-05T14:08:37;2.67;;;1.02;;
43124;SDS011;49182;50.788;7.318;2022-07-05T14:11:05;3.08;;;1.00;;
43124;SDS011;49182;50.788;7.318;2022-07-05T14:13:32;3.60;;;1.00;;
43124;SDS011;49182;50.788;7.318;2022-07-05T14:15:58;3.03;;;1.00;;
43124;SDS011;49182;50.788;7.318;2022-07-05T14:18:25;3.65;;;1.30;;
43124;SDS011;49182;50.788;7.318;2022-07-05T14:20:52;3.40;;;1.17;;
43124;SDS011;49182;50.788;7.318;2022-07-05T14:23:18;4.97;;;1.00;;
43124;SDS011;49182;50.788;7.318;2022-07-05T14:25:45;2.35;;;0.93;;
43124;SDS011;49182;50.788;7.318;2022-07-05T14:28:14;3.30;;;1.20;;
43124;SDS011;49182;50.788;7.318;2022-07-05T14:30:41;3.40;;;1.00;;
43124;SDS011;49182;50.788;7.318;2022-07-05T14:33:09;4.72;;;1.10;;
43124;SDS011;49182;50.788;7.318;2022-07-05T14:35:36;4.80;;;1.20;;
43124;SDS011;49182;50.788;7.318;2022-07-05T14:38:03;1.92;;;1.00;;
43124;SDS011;49182;50.788;7.318;2022-07-05T14:40:31;2.55;;;0.85;;
43124;SDS011;49182;50.788;7.318;2022-07-05T14:42:58;2.90;;;1.10;;
43124;SDS011;49182;50.788;7.318;2022-07-05T14:45:26;5.60;;;1.00;;
43124;SDS011;49182;50.788;7.318;2022-07-05T14:47:54;3.70;;;0.93;;
43124;SDS011;49182;50.788;7.318;2022-07-05T14:50:21;3.58;;;1.10;;
43124;SDS011;49182;50.788;7.318;2022-07-05T14:52:48;3.17;;;1.00;;
43124;SDS011;49182;50.788;7.318;2022-07-05T14:55:16;2.10;;;1.00;;
43124;SDS011;49182;50.788;7.318;2022-07-05T14:57:43;2.90;;;1.00;;
43124;SDS011;49182;50.788;7.318;2022-07-05T15:00:11;2.55;;;1.10;;
43124;SDS011;49182;50.788;7.318;2022-07-05T15:02:41;1.83;;;0.90;;
43124;SDS011;49182;50.788;7.318;2022-07-05T15:05:08;2.92;;;0.93;;